sensor_id;sensor_type;location;lat;lon;timestamp;temperature;humidity
60293;DHT22;52402;52.670;6.750;2022-07-09T00:01:39;16.40;99.90
60293;DHT22;52402;52.670;6.750;2022-07-09T00:04:07;16.40;99.90
60293;DHT22;52402;52.670;6.750;2022-07-09T00:06:33;16.40;99.90
60293;DHT22;52402;52.670;6.750;2022-07-09T00:08:58;16.40;99.90
60293;DHT22;52402;52.670;6.750;2022-07-09T00:11:24;16.40;99.90
60293;DHT22;52402;52.670;6.750;2022-07-09T00:13:50;16.40;99.90
60293;DHT22;52402;52.670;6.750;2022-07-09T00:16:15;16.40;99.90
60293;DHT22;52402;52.670;6.750;2022-07-09T00:18:41;16.40;99.90
60293;DHT22;52402;52.670;6.750;2022-07-09T00:21:07;16.40;99.90
60293;DHT22;52402;52.670;6.750;2022-07-09T00:23:32;16.50;99.90
60293;DHT22;52402;52.670;6.750;2022-07-09T00:25:58;16.50;99.90
60293;DHT22;52402;52.670;6.750;2022-07-09T00:28:24;16.40;99.90
60293;DHT22;52402;52.670;6.750;2022-07-09T00:30:50;16.40;99.90
60293;DHT22;52402;52.670;6.750;2022-07-09T00:33:15;16.40;99.90
60293;DHT22;52402;52.670;6.750;2022-07-09T00:35:41;16.50;99.90
60293;DHT22;52402;52.670;6.750;2022-07-09T00:38:07;16.50;99.90
60293;DHT22;52402;52.670;6.750;2022-07-09T00:40:32;16.50;99.90
60293;DHT22;52402;52.670;6.750;2022-07-09T00:42:59;16.50;99.90
60293;DHT22;52402;52.670;6.750;2022-07-09T00:45:25;16.50;99.90
60293;DHT22;52402;52.670;6.750;2022-07-09T00:47:51;16.50;99.90
60293;DHT22;52402;52.670;6.750;2022-07-09T00:50:17;16.60;99.90
60293;DHT22;52402;52.670;6.750;2022-07-09T00:52:44;16.60;99.90
60293;DHT22;52402;52.670;6.750;2022-07-09T00:55:10;16.60;99.90
60293;DHT22;52402;52.670;6.750;2022-07-09T00:57:38;16.60;99.90
60293;DHT22;52402;52.670;6.750;2022-07-09T01:00:05;16.60;99.90
60293;DHT22;52402;52.670;6.750;2022-07-09T01:02:31;16.60;99.90
60293;DHT22;52402;52.670;6.750;2022-07-09T01:04:59;16.60;99.90
60293;DHT22;52402;52.670;6.750;2022-07-09T01:07:25;16.60;99.90
60293;DHT22;52402;52.670;6.750;2022-07-09T01:09:50;16.60;99.90
60293;DHT22;52402;52.670;6.750;2022-07-09T01:12:16;16.60;99.90
60293;DHT22;52402;52.670;6.750;2022-07-09T01:14:41;16.60;99.90
60293;DHT22;52402;52.670;6.750;2022-07-09T01:17:07;16.70;99.90
60293;DHT22;52402;52.670;6.750;2022-07-09T01:19:34;16.60;99.90
60293;DHT22;52402;52.670;6.750;2022-07-09T01:22:00;16.60;99.90
60293;DHT22;52402;52.670;6.750;2022-07-09T01:24:26;16.60;99.90
60293;DHT22;52402;52.670;6.750;2022-07-09T01:26:53;16.60;99.90
60293;DHT22;52402;52.670;6.750;2022-07-09T01:29:19;16.60;99.90
60293;DHT22;52402;52.670;6.750;2022-07-09T01:31:48;16.60;99.90
60293;DHT22;52402;52.670;6.750;2022-07-09T01:34:14;16.60;99.90
60293;DHT22;52402;52.670;6.750;2022-07-09T01:36:39;16.60;99.90
60293;DHT22;52402;52.670;6.750;2022-07-09T01:39:05;16.60;99.90
60293;DHT22;52402;52.670;6.750;2022-07-09T01:41:30;16.60;99.90
60293;DHT22;52402;52.670;6.750;2022-07-09T01:43:57;16.60;99.90
60293;DHT22;52402;52.670;6.750;2022-07-09T01:46:23;16.50;99.90
60293;DHT22;52402;52.670;6.750;2022-07-09T01:48:49;16.60;99.90
60293;DHT22;52402;52.670;6.750;2022-07-09T01:51:14;16.60;99.90
60293;DHT22;52402;52.670;6.750;2022-07-09T01:53:40;16.60;99.90
60293;DHT22;52402;52.670;6.750;2022-07-09T01:56:07;16.60;99.90
60293;DHT22;52402;52.670;6.750;2022-07-09T01:58:34;16.60;99.90
60293;DHT22;52402;52.670;6.750;2022-07-09T02:00:59;16.60;99.90
60293;DHT22;52402;52.670;6.750;2022-07-09T02:03:25;16.60;99.90
60293;DHT22;52402;52.670;6.750;2022-07-09T02:05:51;16.60;99.90
60293;DHT22;52402;52.670;6.750;2022-07-09T02:08:17;16.60;99.90
60293;DHT22;52402;52.670;6.750;2022-07-09T02:10:42;16.60;99.90
60293;DHT22;52402;52.670;6.750;2022-07-09T02:13:08;16.60;99.90
60293;DHT22;52402;52.670;6.750;2022-07-09T02:15:33;16.50;99.90
60293;DHT22;52402;52.670;6.750;2022-07-09T02:18:00;16.60;99.90
60293;DHT22;52402;52.670;6.750;2022-07-09T02:20:25;16.60;99.90
60293;DHT22;52402;52.670;6.750;2022-07-09T02:22:51;16.50;99.90
60293;DHT22;52402;52.670;6.750;2022-07-09T02:25:17;16.50;99.90
60293;DHT22;52402;52.670;6.750;2022-07-09T02:27:42;16.50;99.90
60293;DHT22;52402;52.670;6.750;2022-07-09T02:30:08;16.50;99.90
60293;DHT22;52402;52.670;6.750;2022-07-09T02:32:34;16.50;99.90
60293;DHT22;52402;52.670;6.750;2022-07-09T02:35:02;16.50;99.90
60293;DHT22;52402;52.670;6.750;2022-07-09T02:37:27;16.50;99.90
60293;DHT22;52402;52.670;6.750;2022-07-09T02:39:53;16.50;99.90
60293;DHT22;52402;52.670;6.750;2022-07-09T02:42:19;16.50;99.90
60293;DHT22;52402;52.670;6.750;2022-07-09T02:44:44;16.50;99.90
60293;DHT22;52402;52.670;6.750;2022-07-09T02:47:10;16.50;99.90
60293;DHT22;52402;52.670;6.750;2022-07-09T02:49:35;16.50;99.90
60293;DHT22;52402;52.670;6.750;2022-07-09T02:52:01;16.40;99.90
60293;DHT22;52402;52.670;6.750;2022-07-09T02:54:30;16.40;99.90
60293;DHT22;52402;52.670;6.750;2022-07-09T02:56:57;16.40;99.90
60293;DHT22;52402;52.670;6.750;2022-07-09T02:59:23;16.40;99.90
60293;DHT22;52402;52.670;6.750;2022-07-09T03:01:48;16.40;99.90
60293;DHT22;52402;52.670;6.750;2022-07-09T03:04:14;16.40;99.90
60293;DHT22;52402;52.670;6.750;2022-07-09T03:06:40;16.40;99.90
60293;DHT22;52402;52.670;6.750;2022-07-09T03:09:05;16.40;99.90
60293;DHT22;52402;52.670;6.750;2022-07-09T03:11:31;16.40;99.90
60293;DHT22;52402;52.670;6.750;2022-07-09T03:13:57;16.40;99.90
60293;DHT22;52402;52.670;6.750;2022-07-09T03:16:23;16.40;99.90
60293;DHT22;52402;52.670;6.750;2022-07-09T03:18:48;16.30;99.90
60293;DHT22;52402;52.670;6.750;2022-07-09T03:21:14;16.40;99.90
60293;DHT22;52402;52.670;6.750;2022-07-09T03:23:40;16.40;99.90
60293;DHT22;52402;52.670;6.750;2022-07-09T03:26:06;16.40;99.90
60293;DHT22;52402;52.670;6.750;2022-07-09T03:28:32;16.40;99.90
60293;DHT22;52402;52.670;6.750;2022-07-09T03:30:58;16.40;99.90
60293;DHT22;52402;52.670;6.750;2022-07-09T03:33:25;16.40;99.90
60293;DHT22;52402;52.670;6.750;2022-07-09T03:35:50;16.40;99.90
60293;DHT22;52402;52.670;6.750;2022-07-09T03:38:16;16.40;99.90
60293;DHT22;52402;52.670;6.750;2022-07-09T03:40:41;16.40;99.90
60293;DHT22;52402;52.670;6.750;2022-07-09T03:43:07;16.40;99.90
60293;DHT22;52402;52.670;6.750;2022-07-09T03:45:32;16.40;99.90
60293;DHT22;52402;52.670;6.750;2022-07-09T03:47:58;16.40;99.90
60293;DHT22;52402;52.670;6.750;2022-07-09T03:50:24;16.40;99.90
60293;DHT22;52402;52.670;6.750;2022-07-09T03:52:50;16.40;99.90
60293;DHT22;52402;52.670;6.750;2022-07-09T03:55:15;16.40;99.90
60293;DHT22;52402;52.670;6.750;2022-07-09T03:57:43;16.40;99.90
60293;DHT22;52402;52.670;6.750;2022-07-09T04:00:09;16.40;99.90
60293;DHT22;52402;52.670;6.750;2022-07-09T04:02:35;16.40;99.90
60293;DHT22;52402;52.670;6.750;2022-07-09T04:05:01;16.40;99.90
60293;DHT22;52402;52.670;6.750;2022-07-09T04:07:26;16.40;99.90
60293;DHT22;52402;52.670;6.750;2022-07-09T04:09:53;16.40;99.90
60293;DHT22;52402;52.670;6.750;2022-07-09T04:12:20;16.40;99.90
60293;DHT22;52402;52.670;6.750;2022-07-09T04:14:45;16.30;99.90
60293;DHT22;52402;52.670;6.750;2022-07-09T04:17:11;16.30;99.90
60293;DHT22;52402;52.670;6.750;2022-07-09T04:19:36;16.30;99.90
60293;DHT22;52402;52.670;6.750;2022-07-09T04:22:02;16.20;99.90
60293;DHT22;52402;52.670;6.750;2022-07-09T04:24:28;16.20;99.90
60293;DHT22;52402;52.670;6.750;2022-07-09T04:26:54;16.30;99.90
60293;DHT22;52402;52.670;6.750;2022-07-09T04:29:20;16.30;99.90
60293;DHT22;52402;52.670;6.750;2022-07-09T04:31:48;16.30;99.90
60293;DHT22;52402;52.670;6.750;2022-07-09T04:34:13;16.30;99.90
60293;DHT22;52402;52.670;6.750;2022-07-09T04:36:39;16.30;99.90
60293;DHT22;52402;52.670;6.750;2022-07-09T04:39:05;16.30;99.90
60293;DHT22;52402;52.670;6.750;2022-07-09T04:41:30;16.40;99.90
60293;DHT22;52402;52.670;6.750;2022-07-09T04:43:56;16.40;99.90
60293;DHT22;52402;52.670;6.750;2022-07-09T04:46:22;16.50;99.90
60293;DHT22;52402;52.670;6.750;2022-07-09T04:48:48;16.50;99.90
60293;DHT22;52402;52.670;6.750;2022-07-09T04:51:14;16.50;99.90
60293;DHT22;52402;52.670;6.750;2022-07-09T04:53:39;16.50;99.90
60293;DHT22;52402;52.670;6.750;2022-07-09T04:56:05;16.50;99.90
60293;DHT22;52402;52.670;6.750;2022-07-09T04:58:33;16.50;99.90
60293;DHT22;52402;52.670;6.750;2022-07-09T05:01:00;16.50;99.90
60293;DHT22;52402;52.670;6.750;2022-07-09T05:03:25;16.50;99.90
60293;DHT22;52402;52.670;6.750;2022-07-09T05:05:51;16.50;99.90
60293;DHT22;52402;52.670;6.750;2022-07-09T05:08:18;16.50;99.90
60293;DHT22;52402;52.670;6.750;2022-07-09T05:10:44;16.60;99.90
60293;DHT22;52402;52.670;6.750;2022-07-09T05:13:10;16.60;99.90
60293;DHT22;52402;52.670;6.750;2022-07-09T05:15:36;16.80;99.90
60293;DHT22;52402;52.670;6.750;2022-07-09T05:18:01;16.80;99.90
60293;DHT22;52402;52.670;6.750;2022-07-09T05:20:27;16.90;99.90
60293;DHT22;52402;52.670;6.750;2022-07-09T05:22:53;16.90;99.90
60293;DHT22;52402;52.670;6.750;2022-07-09T05:25:19;17.00;99.90
60293;DHT22;52402;52.670;6.750;2022-07-09T05:27:46;17.10;99.90
60293;DHT22;52402;52.670;6.750;2022-07-09T05:30:13;17.10;99.90
60293;DHT22;52402;52.670;6.750;2022-07-09T05:32:43;17.10;99.90
60293;DHT22;52402;52.670;6.750;2022-07-09T05:35:09;17.20;99.90
60293;DHT22;52402;52.670;6.750;2022-07-09T05:37:43;17.10;99.90
60293;DHT22;52402;52.670;6.750;2022-07-09T05:40:10;17.20;99.90
60293;DHT22;52402;52.670;6.750;2022-07-09T05:42:36;17.20;99.90
60293;DHT22;52402;52.670;6.750;2022-07-09T05:45:02;17.30;99.90
60293;DHT22;52402;52.670;6.750;2022-07-09T05:47:28;17.30;99.90
60293;DHT22;52402;52.670;6.750;2022-07-09T05:49:53;17.30;99.90
60293;DHT22;52402;52.670;6.750;2022-07-09T05:52:19;17.40;99.90
60293;DHT22;52402;52.670;6.750;2022-07-09T05:54:44;17.40;99.90
60293;DHT22;52402;52.670;6.750;2022-07-09T05:57:10;17.40;99.90
60293;DHT22;52402;52.670;6.750;2022-07-09T05:59:36;17.30;99.90
60293;DHT22;52402;52.670;6.750;2022-07-09T06:02:01;17.40;99.90
60293;DHT22;52402;52.670;6.750;2022-07-09T06:04:28;17.40;99.90
60293;DHT22;52402;52.670;6.750;2022-07-09T06:06:54;17.50;99.90
60293;DHT22;52402;52.670;6.750;2022-07-09T06:09:19;17.60;99.90
60293;DHT22;52402;52.670;6.750;2022-07-09T06:11:45;17.60;99.90
60293;DHT22;52402;52.670;6.750;2022-07-09T06:14:11;17.70;99.90
60293;DHT22;52402;52.670;6.750;2022-07-09T06:16:36;17.80;99.90
60293;DHT22;52402;52.670;6.750;2022-07-09T06:19:02;17.90;99.90
60293;DHT22;52402;52.670;6.750;2022-07-09T06:21:27;18.00;99.90
60293;DHT22;52402;52.670;6.750;2022-07-09T06:23:53;18.10;99.90
60293;DHT22;52402;52.670;6.750;2022-07-09T06:26:18;18.10;99.90
60293;DHT22;52402;52.670;6.750;2022-07-09T06:28:44;18.20;99.90
60293;DHT22;52402;52.670;6.750;2022-07-09T06:31:11;18.30;99.90
60293;DHT22;52402;52.670;6.750;2022-07-09T06:33:37;18.40;99.90
60293;DHT22;52402;52.670;6.750;2022-07-09T06:36:03;18.50;99.90
60293;DHT22;52402;52.670;6.750;2022-07-09T06:38:29;18.60;99.90
60293;DHT22;52402;52.670;6.750;2022-07-09T06:40:55;18.70;99.90
60293;DHT22;52402;52.670;6.750;2022-07-09T06:43:22;18.70;99.90
60293;DHT22;52402;52.670;6.750;2022-07-09T06:45:47;18.80;99.90
60293;DHT22;52402;52.670;6.750;2022-07-09T06:48:13;18.80;99.90
60293;DHT22;52402;52.670;6.750;2022-07-09T06:50:38;18.80;99.90
60293;DHT22;52402;52.670;6.750;2022-07-09T06:53:04;18.70;99.90
60293;DHT22;52402;52.670;6.750;2022-07-09T06:55:30;18.80;99.90
60293;DHT22;52402;52.670;6.750;2022-07-09T06:57:56;18.70;99.90
60293;DHT22;52402;52.670;6.750;2022-07-09T07:00:23;18.80;99.90
60293;DHT22;52402;52.670;6.750;2022-07-09T07:02:49;18.70;99.90
60293;DHT22;52402;52.670;6.750;2022-07-09T07:05:15;18.80;99.90
60293;DHT22;52402;52.670;6.750;2022-07-09T07:07:41;18.80;99.90
60293;DHT22;52402;52.670;6.750;2022-07-09T07:10:07;18.90;99.90
60293;DHT22;52402;52.670;6.750;2022-07-09T07:12:34;18.90;99.90
60293;DHT22;52402;52.670;6.750;2022-07-09T07:14:59;18.90;99.90
60293;DHT22;52402;52.670;6.750;2022-07-09T07:17:25;18.90;99.90
60293;DHT22;52402;52.670;6.750;2022-07-09T07:19:50;18.90;99.90
60293;DHT22;52402;52.670;6.750;2022-07-09T07:22:16;18.90;99.90
60293;DHT22;52402;52.670;6.750;2022-07-09T07:24:41;19.00;99.90
60293;DHT22;52402;52.670;6.750;2022-07-09T07:27:07;19.00;99.90
60293;DHT22;52402;52.670;6.750;2022-07-09T07:29:33;18.90;99.90
60293;DHT22;52402;52.670;6.750;2022-07-09T07:31:58;19.00;99.90
60293;DHT22;52402;52.670;6.750;2022-07-09T07:34:25;19.10;99.90
60293;DHT22;52402;52.670;6.750;2022-07-09T07:36:51;19.20;99.90
60293;DHT22;52402;52.670;6.750;2022-07-09T07:39:18;19.20;99.90
60293;DHT22;52402;52.670;6.750;2022-07-09T07:41:47;19.30;99.90
60293;DHT22;52402;52.670;6.750;2022-07-09T07:44:12;19.40;99.90
60293;DHT22;52402;52.670;6.750;2022-07-09T07:46:38;19.50;99.90
60293;DHT22;52402;52.670;6.750;2022-07-09T07:49:03;19.50;99.90
60293;DHT22;52402;52.670;6.750;2022-07-09T07:51:29;19.40;99.90
60293;DHT22;52402;52.670;6.750;2022-07-09T07:53:55;19.40;99.90
60293;DHT22;52402;52.670;6.750;2022-07-09T07:56:20;19.50;99.90
60293;DHT22;52402;52.670;6.750;2022-07-09T07:58:46;19.60;99.90
60293;DHT22;52402;52.670;6.750;2022-07-09T08:01:11;19.50;99.90
60293;DHT22;52402;52.670;6.750;2022-07-09T08:03:37;19.50;99.90
60293;DHT22;52402;52.670;6.750;2022-07-09T08:06:02;19.50;99.90
60293;DHT22;52402;52.670;6.750;2022-07-09T08:08:28;19.50;99.90
60293;DHT22;52402;52.670;6.750;2022-07-09T08:10:54;19.60;99.90
60293;DHT22;52402;52.670;6.750;2022-07-09T08:13:20;19.70;99.90
60293;DHT22;52402;52.670;6.750;2022-07-09T08:15:45;19.60;99.90
60293;DHT22;52402;52.670;6.750;2022-07-09T08:18:11;19.60;99.90
60293;DHT22;52402;52.670;6.750;2022-07-09T08:20:41;19.70;99.90
60293;DHT22;52402;52.670;6.750;2022-07-09T08:23:07;19.60;99.90
60293;DHT22;52402;52.670;6.750;2022-07-09T08:25:33;19.70;99.90
60293;DHT22;52402;52.670;6.750;2022-07-09T08:27:59;19.70;99.90
60293;DHT22;52402;52.670;6.750;2022-07-09T08:30:24;19.70;99.90
60293;DHT22;52402;52.670;6.750;2022-07-09T08:32:50;19.80;99.90
60293;DHT22;52402;52.670;6.750;2022-07-09T08:35:15;19.90;99.90
60293;DHT22;52402;52.670;6.750;2022-07-09T08:37:41;19.80;99.90
60293;DHT22;52402;52.670;6.750;2022-07-09T08:40:07;19.80;99.90
60293;DHT22;52402;52.670;6.750;2022-07-09T08:42:33;19.80;99.90
60293;DHT22;52402;52.670;6.750;2022-07-09T08:44:58;19.90;99.90
60293;DHT22;52402;52.670;6.750;2022-07-09T08:47:25;20.00;99.90
60293;DHT22;52402;52.670;6.750;2022-07-09T08:49:54;20.10;99.90
60293;DHT22;52402;52.670;6.750;2022-07-09T08:52:20;20.20;99.90
60293;DHT22;52402;52.670;6.750;2022-07-09T08:54:46;20.30;99.90
60293;DHT22;52402;52.670;6.750;2022-07-09T08:57:12;20.30;99.90
60293;DHT22;52402;52.670;6.750;2022-07-09T08:59:38;20.50;99.90
60293;DHT22;52402;52.670;6.750;2022-07-09T09:02:04;20.40;99.90
60293;DHT22;52402;52.670;6.750;2022-07-09T09:04:32;20.30;99.90
60293;DHT22;52402;52.670;6.750;2022-07-09T09:06:59;20.40;99.90
60293;DHT22;52402;52.670;6.750;2022-07-09T09:09:25;20.50;99.90
60293;DHT22;52402;52.670;6.750;2022-07-09T09:11:51;20.60;99.90
60293;DHT22;52402;52.670;6.750;2022-07-09T09:14:20;20.60;99.90
60293;DHT22;52402;52.670;6.750;2022-07-09T09:16:46;20.80;99.90
60293;DHT22;52402;52.670;6.750;2022-07-09T09:19:12;20.80;99.90
60293;DHT22;52402;52.670;6.750;2022-07-09T09:21:37;21.00;99.90
60293;DHT22;52402;52.670;6.750;2022-07-09T09:24:03;21.00;99.90
60293;DHT22;52402;52.670;6.750;2022-07-09T09:26:29;21.00;99.90
60293;DHT22;52402;52.670;6.750;2022-07-09T09:28:58;21.20;99.90
60293;DHT22;52402;52.670;6.750;2022-07-09T09:31:28;21.30;99.90
60293;DHT22;52402;52.670;6.750;2022-07-09T09:33:56;21.40;99.90
60293;DHT22;52402;52.670;6.750;2022-07-09T09:36:32;21.50;99.90
60293;DHT22;52402;52.670;6.750;2022-07-09T09:39:24;21.70;99.90
60293;DHT22;52402;52.670;6.750;2022-07-09T09:44:23;21.90;99.90
60293;DHT22;52402;52.670;6.750;2022-07-09T09:46:52;21.90;99.90
60293;DHT22;52402;52.670;6.750;2022-07-09T09:49:18;22.10;99.90
60293;DHT22;52402;52.670;6.750;2022-07-09T09:52:02;22.10;99.90
60293;DHT22;52402;52.670;6.750;2022-07-09T09:54:31;22.30;99.90
60293;DHT22;52402;52.670;6.750;2022-07-09T09:56:58;22.20;99.90
60293;DHT22;52402;52.670;6.750;2022-07-09T09:59:24;22.20;99.90
60293;DHT22;52402;52.670;6.750;2022-07-09T10:01:49;22.10;99.90
60293;DHT22;52402;52.670;6.750;2022-07-09T10:04:16;22.30;99.90
60293;DHT22;52402;52.670;6.750;2022-07-09T10:06:42;22.30;99.90
60293;DHT22;52402;52.670;6.750;2022-07-09T10:09:13;22.40;99.90
60293;DHT22;52402;52.670;6.750;2022-07-09T10:11:39;22.60;99.90
60293;DHT22;52402;52.670;6.750;2022-07-09T10:14:06;22.60;99.90
60293;DHT22;52402;52.670;6.750;2022-07-09T10:16:39;22.60;99.90
60293;DHT22;52402;52.670;6.750;2022-07-09T10:19:05;22.80;99.90
60293;DHT22;52402;52.670;6.750;2022-07-09T10:21:39;22.40;99.90
60293;DHT22;52402;52.670;6.750;2022-07-09T10:24:07;22.50;99.90
60293;DHT22;52402;52.670;6.750;2022-07-09T10:26:44;22.50;99.90
60293;DHT22;52402;52.670;6.750;2022-07-09T10:29:19;22.70;99.90
60293;DHT22;52402;52.670;6.750;2022-07-09T10:31:46;22.90;99.90
60293;DHT22;52402;52.670;6.750;2022-07-09T10:40:12;23.40;99.90
60293;DHT22;52402;52.670;6.750;2022-07-09T10:42:38;23.40;99.90
60293;DHT22;52402;52.670;6.750;2022-07-09T10:45:24;23.20;99.90
60293;DHT22;52402;52.670;6.750;2022-07-09T10:47:52;23.20;99.90
60293;DHT22;52402;52.670;6.750;2022-07-09T10:50:18;23.20;99.90
60293;DHT22;52402;52.670;6.750;2022-07-09T10:52:45;23.30;99.90
60293;DHT22;52402;52.670;6.750;2022-07-09T10:55:11;23.10;99.90
60293;DHT22;52402;52.670;6.750;2022-07-09T10:57:36;22.60;99.90
60293;DHT22;52402;52.670;6.750;2022-07-09T11:00:03;22.30;99.90
60293;DHT22;52402;52.670;6.750;2022-07-09T11:02:28;22.20;99.90
60293;DHT22;52402;52.670;6.750;2022-07-09T11:04:54;22.20;99.90
60293;DHT22;52402;52.670;6.750;2022-07-09T11:07:24;22.30;99.90
60293;DHT22;52402;52.670;6.750;2022-07-09T11:09:51;22.30;99.90
60293;DHT22;52402;52.670;6.750;2022-07-09T11:12:17;22.40;99.90
60293;DHT22;52402;52.670;6.750;2022-07-09T11:14:47;22.60;99.90
60293;DHT22;52402;52.670;6.750;2022-07-09T11:17:17;22.70;99.90
60293;DHT22;52402;52.670;6.750;2022-07-09T11:19:43;22.70;99.90
60293;DHT22;52402;52.670;6.750;2022-07-09T11:22:09;22.60;99.90
60293;DHT22;52402;52.670;6.750;2022-07-09T11:24:34;22.80;99.90
60293;DHT22;52402;52.670;6.750;2022-07-09T11:27:04;22.70;99.90
60293;DHT22;52402;52.670;6.750;2022-07-09T11:29:31;22.80;99.90
60293;DHT22;52402;52.670;6.750;2022-07-09T11:31:56;23.20;99.90
60293;DHT22;52402;52.670;6.750;2022-07-09T11:34:22;23.30;99.90
60293;DHT22;52402;52.670;6.750;2022-07-09T11:36:52;23.60;99.90
60293;DHT22;52402;52.670;6.750;2022-07-09T11:39:28;23.70;99.60
60293;DHT22;52402;52.670;6.750;2022-07-09T11:41:55;23.60;98.60
60293;DHT22;52402;52.670;6.750;2022-07-09T11:44:32;23.80;99.60
60293;DHT22;52402;52.670;6.750;2022-07-09T11:47:07;23.80;99.00
60293;DHT22;52402;52.670;6.750;2022-07-09T11:49:40;24.10;99.70
60293;DHT22;52402;52.670;6.750;2022-07-09T11:52:20;24.20;98.80
60293;DHT22;52402;52.670;6.750;2022-07-09T11:54:59;23.80;98.90
60293;DHT22;52402;52.670;6.750;2022-07-09T11:57:26;23.50;99.30
60293;DHT22;52402;52.670;6.750;2022-07-09T11:59:52;23.30;99.90
60293;DHT22;52402;52.670;6.750;2022-07-09T12:02:31;23.50;99.40
60293;DHT22;52402;52.670;6.750;2022-07-09T12:04:57;23.90;98.70
60293;DHT22;52402;52.670;6.750;2022-07-09T12:07:23;23.70;99.10
60293;DHT22;52402;52.670;6.750;2022-07-09T12:10:09;23.60;98.90
60293;DHT22;52402;52.670;6.750;2022-07-09T12:12:36;23.90;99.00
60293;DHT22;52402;52.670;6.750;2022-07-09T12:15:03;23.50;99.90
60293;DHT22;52402;52.670;6.750;2022-07-09T12:17:31;23.30;99.90
60293;DHT22;52402;52.670;6.750;2022-07-09T12:19:59;22.70;99.90
60293;DHT22;52402;52.670;6.750;2022-07-09T12:22:25;22.70;99.90
60293;DHT22;52402;52.670;6.750;2022-07-09T12:24:53;22.80;99.90
60293;DHT22;52402;52.670;6.750;2022-07-09T12:27:19;23.10;99.90
60293;DHT22;52402;52.670;6.750;2022-07-09T12:29:46;23.40;99.90
60293;DHT22;52402;52.670;6.750;2022-07-09T12:32:12;23.40;99.90
60293;DHT22;52402;52.670;6.750;2022-07-09T12:34:38;23.40;99.90
60293;DHT22;52402;52.670;6.750;2022-07-09T12:37:04;23.40;99.90
60293;DHT22;52402;52.670;6.750;2022-07-09T12:39:30;23.50;99.90
60293;DHT22;52402;52.670;6.750;2022-07-09T12:41:55;23.60;99.90
60293;DHT22;52402;52.670;6.750;2022-07-09T12:44:21;23.80;99.90
60293;DHT22;52402;52.670;6.750;2022-07-09T12:46:47;23.70;99.90
60293;DHT22;52402;52.670;6.750;2022-07-09T12:49:12;23.80;99.90
60293;DHT22;52402;52.670;6.750;2022-07-09T12:51:38;23.50;99.90
60293;DHT22;52402;52.670;6.750;2022-07-09T12:54:04;23.30;99.90
60293;DHT22;52402;52.670;6.750;2022-07-09T12:56:29;23.00;99.90
60293;DHT22;52402;52.670;6.750;2022-07-09T12:58:55;23.20;99.90
60293;DHT22;52402;52.670;6.750;2022-07-09T13:01:21;23.60;99.90
60293;DHT22;52402;52.670;6.750;2022-07-09T13:03:46;23.70;99.00
60293;DHT22;52402;52.670;6.750;2022-07-09T13:06:12;23.60;98.90
60293;DHT22;52402;52.670;6.750;2022-07-09T13:08:57;23.30;99.00
60293;DHT22;52402;52.670;6.750;2022-07-09T13:11:23;23.00;99.20
60293;DHT22;52402;52.670;6.750;2022-07-09T13:13:49;23.10;99.20
60293;DHT22;52402;52.670;6.750;2022-07-09T13:16:14;23.50;99.20
60293;DHT22;52402;52.670;6.750;2022-07-09T13:18:40;23.20;98.50
60293;DHT22;52402;52.670;6.750;2022-07-09T13:21:06;23.20;98.40
60293;DHT22;52402;52.670;6.750;2022-07-09T13:23:32;23.30;98.30
60293;DHT22;52402;52.670;6.750;2022-07-09T13:25:58;23.10;98.10
60293;DHT22;52402;52.670;6.750;2022-07-09T13:28:24;22.90;97.90
60293;DHT22;52402;52.670;6.750;2022-07-09T13:30:49;22.70;97.90
60293;DHT22;52402;52.670;6.750;2022-07-09T13:33:15;22.40;97.30
60293;DHT22;52402;52.670;6.750;2022-07-09T13:35:40;22.30;96.90
60293;DHT22;52402;52.670;6.750;2022-07-09T13:38:07;22.20;96.70
60293;DHT22;52402;52.670;6.750;2022-07-09T13:40:32;22.10;97.10
60293;DHT22;52402;52.670;6.750;2022-07-09T13:42:58;22.50;97.30
60293;DHT22;52402;52.670;6.750;2022-07-09T13:45:24;22.80;96.60
60293;DHT22;52402;52.670;6.750;2022-07-09T13:47:49;23.10;96.50
60293;DHT22;52402;52.670;6.750;2022-07-09T13:50:15;23.40;96.40
60293;DHT22;52402;52.670;6.750;2022-07-09T13:52:41;23.20;96.10
60293;DHT22;52402;52.670;6.750;2022-07-09T13:55:07;23.30;96.70
60293;DHT22;52402;52.670;6.750;2022-07-09T13:57:32;23.50;96.40
60293;DHT22;52402;52.670;6.750;2022-07-09T13:59:58;23.80;95.50
60293;DHT22;52402;52.670;6.750;2022-07-09T14:02:24;24.10;95.50
60293;DHT22;52402;52.670;6.750;2022-07-09T14:04:50;24.20;94.70
60293;DHT22;52402;52.670;6.750;2022-07-09T14:07:16;24.30;93.90
60293;DHT22;52402;52.670;6.750;2022-07-09T14:09:42;24.10;93.80
60293;DHT22;52402;52.670;6.750;2022-07-09T14:12:08;23.90;94.40
60293;DHT22;52402;52.670;6.750;2022-07-09T14:14:34;23.80;94.50
60293;DHT22;52402;52.670;6.750;2022-07-09T14:17:00;23.60;94.80
60293;DHT22;52402;52.670;6.750;2022-07-09T14:19:26;23.50;94.70
60293;DHT22;52402;52.670;6.750;2022-07-09T14:21:52;23.40;94.80
60293;DHT22;52402;52.670;6.750;2022-07-09T14:24:17;23.10;94.50
60293;DHT22;52402;52.670;6.750;2022-07-09T14:26:43;23.40;94.90
60293;DHT22;52402;52.670;6.750;2022-07-09T14:29:12;23.20;94.80
60293;DHT22;52402;52.670;6.750;2022-07-09T14:31:38;22.90;95.10
60293;DHT22;52402;52.670;6.750;2022-07-09T14:34:04;22.60;95.00
60293;DHT22;52402;52.670;6.750;2022-07-09T14:36:29;22.30;95.40
60293;DHT22;52402;52.670;6.750;2022-07-09T14:38:55;22.20;95.60
60293;DHT22;52402;52.670;6.750;2022-07-09T14:41:21;22.10;95.70
60293;DHT22;52402;52.670;6.750;2022-07-09T14:43:47;22.30;95.90
60293;DHT22;52402;52.670;6.750;2022-07-09T14:46:12;22.30;95.90
60293;DHT22;52402;52.670;6.750;2022-07-09T14:48:38;22.20;95.90
60293;DHT22;52402;52.670;6.750;2022-07-09T14:51:06;21.90;95.60
60293;DHT22;52402;52.670;6.750;2022-07-09T14:53:32;22.00;95.50
60293;DHT22;52402;52.670;6.750;2022-07-09T14:55:58;21.80;95.80
60293;DHT22;52402;52.670;6.750;2022-07-09T14:58:24;21.70;95.90
60293;DHT22;52402;52.670;6.750;2022-07-09T15:00:50;21.50;96.30
60293;DHT22;52402;52.670;6.750;2022-07-09T15:03:16;21.50;96.60
60293;DHT22;52402;52.670;6.750;2022-07-09T15:05:41;21.40;96.80
60293;DHT22;52402;52.670;6.750;2022-07-09T15:08:07;21.40;96.80
60293;DHT22;52402;52.670;6.750;2022-07-09T15:10:32;21.20;97.30
60293;DHT22;52402;52.670;6.750;2022-07-09T15:12:58;21.60;97.30
60293;DHT22;52402;52.670;6.750;2022-07-09T15:15:24;21.60;96.70
60293;DHT22;52402;52.670;6.750;2022-07-09T15:17:49;21.50;96.40
60293;DHT22;52402;52.670;6.750;2022-07-09T15:20:17;21.60;96.70
60293;DHT22;52402;52.670;6.750;2022-07-09T15:22:42;21.50;96.80
60293;DHT22;52402;52.670;6.750;2022-07-09T15:25:08;21.50;96.40
60293;DHT22;52402;52.670;6.750;2022-07-09T15:27:36;21.40;96.30
60293;DHT22;52402;52.670;6.750;2022-07-09T15:30:03;21.30;96.00
60293;DHT22;52402;52.670;6.750;2022-07-09T15:32:29;21.50;96.20
60293;DHT22;52402;52.670;6.750;2022-07-09T15:34:55;21.60;96.20